Time;durP1;ratioP1;P1;durP2;ratioP2;P2;SDS_P1;SDS_P2;PMS_P1;PMS_P2;Temp;Humidity;BMP_temperature;BMP_pressure;BME280_temperature;BME280_humidity;BME280_pressure;Samples;Min_cycle;Max_cycle;Signal;HPM_P1;HPM_P2
2023/09/17 00:01:33;;;;;;;7.83;7.03;;;14.10;99.90;;;;;;4997322;28;20535;-51
2023/09/17 00:04:00;;;;;;;9.03;7.53;;;14.20;99.90;;;;;;4991181;28;20551;-51
2023/09/17 00:06:27;;;;;;;6.87;6.00;;;14.10;99.90;;;;;;5007774;28;20802;-52
2023/09/17 00:08:53;;;;;;;11.43;6.50;;;14.10;99.90;;;;;;4998867;28;20575;-51
2023/09/17 00:11:21;;;;;;;9.20;5.80;;;14.10;99.90;;;;;;5002684;28;20475;-51
2023/09/17 00:13:48;;;;;;;6.10;5.57;;;14.00;99.90;;;;;;5006000;28;20455;-51
2023/09/17 00:16:15;;;;;;;6.97;6.27;;;14.10;99.90;;;;;;5003228;28;20570;-53
2023/09/17 00:18:41;;;;;;;8.03;6.57;;;14.10;99.90;;;;;;4999236;28;20566;-52
2023/09/17 00:21:08;;;;;;;6.20;5.70;;;14.10;99.90;;;;;;5003758;28;20550;-53
2023/09/17 00:23:34;;;;;;;9.00;5.77;;;14.00;99.90;;;;;;4999901;28;20517;-51
2023/09/17 00:26:01;;;;;;;7.60;6.90;;;13.90;99.90;;;;;;4991778;28;20547;-51
2023/09/17 00:28:29;;;;;;;7.13;6.10;;;14.00;99.90;;;;;;4993220;28;20488;-53
2023/09/17 00:30:55;;;;;;;6.70;5.90;;;13.90;99.90;;;;;;5001540;28;20951;-51
2023/09/17 00:33:22;;;;;;;6.70;6.10;;;13.90;99.90;;;;;;5008211;28;20535;-52
2023/09/17 00:35:49;;;;;;;6.40;5.80;;;13.90;99.90;;;;;;4998061;28;20466;-53
2023/09/17 00:38:15;;;;;;;8.70;5.87;;;13.80;99.90;;;;;;5008897;28;21012;-52
2023/09/17 00:40:42;;;;;;;10.10;6.00;;;13.80;99.90;;;;;;4999833;28;20546;-52
2023/09/17 00:43:08;;;;;;;8.90;5.70;;;13.70;99.90;;;;;;5012504;28;20902;-51
2023/09/17 00:45:36;;;;;;;6.23;5.73;;;13.80;99.90;;;;;;5008097;28;20455;-52
2023/09/17 00:48:05;;;;;;;5.50;5.00;;;13.80;99.90;;;;;;5007723;28;20514;-51
2023/09/17 00:50:32;;;;;;;7.40;6.70;;;13.70;99.90;;;;;;4994718;28;20457;-52
2023/09/17 00:52:59;;;;;;;7.17;6.50;;;13.70;99.90;;;;;;5004450;28;21087;-52
2023/09/17 00:55:29;;;;;;;10.90;6.70;;;13.70;99.90;;;;;;5000704;28;20551;-52
2023/09/17 00:57:57;;;;;;;6.17;5.67;;;13.60;99.90;;;;;;4996758;28;20491;-52
2023/09/17 01:00:25;;;;;;;6.90;5.40;;;13.60;99.90;;;;;;5003759;28;20487;-52
2023/09/17 01:02:54;;;;;;;6.67;6.07;;;13.60;99.90;;;;;;5006225;28;20968;-51
2023/09/17 01:05:21;;;;;;;6.60;5.93;;;13.50;99.90;;;;;;5003545;28;20467;-52
2023/09/17 01:07:48;;;;;;;6.80;5.70;;;13.50;99.90;;;;;;5002992;28;20874;-52
2023/09/17 01:10:15;;;;;;;7.03;6.33;;;13.50;99.90;;;;;;4997510;28;21020;-52
2023/09/17 01:12:43;;;;;;;6.80;6.20;;;13.50;99.90;;;;;;5004488;28;20595;-51
2023/09/17 01:15:10;;;;;;;12.03;6.70;;;13.50;99.90;;;;;;5001370;28;20467;-51
2023/09/17 01:17:38;;;;;;;11.90;6.10;;;13.40;99.90;;;;;;5002052;28;20567;-53
2023/09/17 01:20:24;;;;;;;6.40;5.77;;;13.40;99.90;;;;;;5003949;28;20468;-52
2023/09/17 01:22:55;;;;;;;6.33;5.80;;;13.40;99.90;;;;;;4994685;28;20464;-53
2023/09/17 01:25:29;;;;;;;7.00;6.30;;;13.40;99.90;;;;;;4992623;28;20460;-51
2023/09/17 01:27:58;;;;;;;9.17;5.67;;;13.50;99.90;;;;;;5007308;28;20486;-51
2023/09/17 01:30:25;;;;;;;6.37;5.87;;;13.40;99.90;;;;;;4993483;28;20516;-51
2023/09/17 01:32:52;;;;;;;6.73;6.13;;;13.40;99.90;;;;;;5001922;28;20911;-51
2023/09/17 01:35:19;;;;;;;10.80;6.30;;;13.40;99.90;;;;;;4994654;28;20541;-52
2023/09/17 01:37:48;;;;;;;6.47;5.87;;;13.50;99.90;;;;;;4999364;28;20480;-52
2023/09/17 01:40:15;;;;;;;6.97;6.27;;;13.40;99.90;;;;;;4992677;28;20465;-52
2023/09/17 01:42:45;;;;;;;7.57;5.80;;;13.40;99.90;;;;;;4996265;28;20583;-52
2023/09/17 01:45:14;;;;;;;7.77;6.33;;;13.40;99.90;;;;;;4999243;28;20492;-51
2023/09/17 01:47:42;;;;;;;8.30;7.40;;;13.30;99.90;;;;;;4997593;28;20476;-53
2023/09/17 01:50:09;;;;;;;8.90;6.60;;;13.30;99.90;;;;;;5000431;28;20530;-51
2023/09/17 01:52:37;;;;;;;7.90;5.93;;;13.30;99.90;;;;;;4991706;28;20542;-51
2023/09/17 01:55:04;;;;;;;7.37;6.67;;;13.30;99.90;;;;;;4993728;28;20460;-51
2023/09/17 01:57:31;;;;;;;6.47;5.80;;;13.30;99.90;;;;;;4995360;28;20610;-53
2023/09/17 01:59:58;;;;;;;11.10;6.43;;;13.20;99.90;;;;;;5006394;28;20467;-53
2023/09/17 02:02:26;;;;;;;11.13;7.70;;;13.20;99.90;;;;;;5009014;28;20459;-51
2023/09/17 02:04:53;;;;;;;6.60;6.00;;;13.10;99.90;;;;;;5008027;28;20479;-53
2023/09/17 02:07:19;;;;;;;6.43;5.93;;;13.10;99.90;;;;;;4999603;28;20496;-52
2023/09/17 02:09:46;;;;;;;7.00;6.40;;;13.00;99.90;;;;;;5005241;28;20495;-51
2023/09/17 02:12:12;;;;;;;7.07;5.90;;;13.00;99.90;;;;;;5002410;28;20500;-52
2023/09/17 02:14:39;;;;;;;6.60;6.00;;;12.90;99.90;;;;;;5001443;28;20549;-50
2023/09/17 02:17:06;;;;;;;5.90;5.40;;;13.00;99.90;;;;;;5000797;28;20483;-50
2023/09/17 02:19:34;;;;;;;6.10;5.60;;;13.00;99.90;;;;;;5010390;28;20511;-52
2023/09/17 02:22:00;;;;;;;7.77;6.20;;;12.90;99.90;;;;;;5001701;28;20527;-52
2023/09/17 02:24:27;;;;;;;7.40;6.00;;;13.10;99.90;;;;;;4996924;28;20507;-50
2023/09/17 02:26:53;;;;;;;9.73;6.60;;;12.90;99.90;;;;;;4995667;28;20491;-51
2023/09/17 02:29:20;;;;;;;7.60;6.90;;;12.90;99.90;;;;;;4996717;28;20603;-51
2023/09/17 02:31:47;;;;;;;6.70;5.70;;;12.90;99.90;;;;;;5000634;28;20471;-51
2023/09/17 02:34:13;;;;;;;6.60;5.97;;;12.90;99.90;;;;;;5005626;28;20825;-52
2023/09/17 02:36:41;;;;;;;8.33;6.30;;;12.80;99.90;;;;;;4995908;28;21001;-51
2023/09/17 02:39:08;;;;;;;7.73;6.63;;;12.80;99.90;;;;;;4996880;28;21025;-53
2023/09/17 02:41:35;;;;;;;6.40;5.27;;;12.80;99.90;;;;;;4996640;28;20870;-51
2023/09/17 02:44:02;;;;;;;7.47;6.10;;;12.80;99.90;;;;;;4991741;28;20488;-51
2023/09/17 02:46:29;;;;;;;7.47;5.90;;;12.90;99.90;;;;;;4983829;28;20460;-51
2023/09/17 02:48:55;;;;;;;6.63;6.03;;;12.90;99.90;;;;;;4999713;28;20524;-51
2023/09/17 02:51:22;;;;;;;6.93;6.33;;;12.90;99.90;;;;;;4995714;28;20902;-51
2023/09/17 02:53:50;;;;;;;8.77;6.00;;;12.90;99.90;;;;;;4993949;28;20491;-52
2023/09/17 02:56:17;;;;;;;7.20;6.00;;;12.80;99.90;;;;;;4996238;28;20459;-52
2023/09/17 02:58:44;;;;;;;7.63;6.40;;;12.80;99.90;;;;;;4994957;28;20491;-52
2023/09/17 03:01:15;;;;;;;8.60;6.63;;;12.70;99.90;;;;;;4996884;28;20499;-51
2023/09/17 03:03:42;;;;;;;7.07;5.87;;;12.70;99.90;;;;;;4998277;28;20460;-52
2023/09/17 03:06:10;;;;;;;7.30;6.27;;;12.60;99.90;;;;;;4998733;28;20539;-53
2023/09/17 03:08:41;;;;;;;7.30;6.60;;;12.60;99.90;;;;;;5004913;28;20479;-52
2023/09/17 03:11:10;;;;;;;7.17;6.60;;;12.50;99.90;;;;;;5002331;28;20526;-51
2023/09/17 03:13:37;;;;;;;7.43;6.40;;;12.50;99.90;;;;;;4990866;28;20455;-53
2023/09/17 03:16:04;;;;;;;7.00;6.40;;;12.50;99.90;;;;;;4991194;28;20499;-51
2023/09/17 03:18:31;;;;;;;13.27;6.90;;;12.50;99.90;;;;;;4999621;28;20497;-51
2023/09/17 03:20:58;;;;;;;11.03;6.80;;;12.50;99.90;;;;;;4989479;28;20493;-51
2023/09/17 03:23:24;;;;;;;7.37;5.97;;;12.50;99.90;;;;;;4996673;28;20904;-52
2023/09/17 03:25:51;;;;;;;8.77;6.73;;;12.50;99.90;;;;;;4995464;28;20504;-51
2023/09/17 03:28:19;;;;;;;6.63;5.97;;;12.60;99.90;;;;;;4988921;28;20554;-51
2023/09/17 03:30:45;;;;;;;9.20;6.07;;;12.60;99.90;;;;;;4997865;28;21023;-52
2023/09/17 03:33:13;;;;;;;7.53;6.80;;;12.60;99.90;;;;;;4996941;28;20538;-51
2023/09/17 03:35:40;;;;;;;7.80;6.67;;;12.60;99.90;;;;;;4988984;28;20452;-51
2023/09/17 03:38:06;;;;;;;6.50;5.87;;;12.50;99.90;;;;;;4999585;28;20487;-52
2023/09/17 03:40:35;;;;;;;7.07;6.37;;;12.60;99.90;;;;;;4999330;28;20955;-52
2023/09/17 03:43:01;;;;;;;7.00;6.30;;;12.60;99.90;;;;;;5003015;28;20493;-52
2023/09/17 03:45:30;;;;;;;8.50;6.73;;;12.60;99.90;;;;;;5001384;28;20456;-51
2023/09/17 03:47:57;;;;;;;8.90;6.10;;;12.60;99.90;;;;;;4986805;28;20688;-52
2023/09/17 03:50:24;;;;;;;7.37;6.63;;;12.50;99.90;;;;;;4992058;28;20876;-50
2023/09/17 03:52:53;;;;;;;7.00;6.30;;;12.50;99.90;;;;;;5001201;28;20895;-51
2023/09/17 03:55:21;;;;;;;10.23;7.20;;;12.50;99.90;;;;;;5009766;28;20880;-52
2023/09/17 03:57:48;;;;;;;17.63;6.60;;;12.50;99.90;;;;;;4999634;28;20495;-53
2023/09/17 04:00:16;;;;;;;7.20;6.50;;;12.40;99.90;;;;;;4994619;28;20499;-52
2023/09/17 04:02:45;;;;;;;7.80;6.70;;;12.40;99.90;;;;;;4996154;28;20463;-52
2023/09/17 04:05:14;;;;;;;7.63;6.83;;;12.40;99.90;;;;;;5008959;28;20460;-51
2023/09/17 04:07:43;;;;;;;6.83;6.33;;;12.40;99.90;;;;;;4989145;28;20503;-51
2023/09/17 04:10:10;;;;;;;7.80;6.73;;;12.40;99.90;;;;;;5005343;28;20467;-52
2023/09/17 04:12:39;;;;;;;11.10;7.40;;;12.40;99.90;;;;;;5001376;28;21177;-51
2023/09/17 04:15:12;;;;;;;7.77;7.07;;;12.50;99.90;;;;;;5001466;28;20456;-51
2023/09/17 04:17:38;;;;;;;8.47;6.77;;;12.50;99.90;;;;;;4998218;28;20511;-51
2023/09/17 04:20:13;;;;;;;10.77;7.00;;;12.40;99.90;;;;;;5007479;28;20499;-52
2023/09/17 04:22:40;;;;;;;9.00;7.20;;;12.40;99.90;;;;;;4986852;28;21030;-51
2023/09/17 04:25:09;;;;;;;10.73;7.93;;;12.40;99.90;;;;;;4997815;28;20483;-50
2023/09/17 04:27:36;;;;;;;7.60;6.90;;;12.40;99.90;;;;;;5001884;28;20460;-53
2023/09/17 04:30:05;;;;;;;9.67;7.37;;;12.40;99.90;;;;;;5009074;28;20456;-51
2023/09/17 04:32:34;;;;;;;7.17;6.47;;;12.30;99.90;;;;;;4993258;28;20463;-50
2023/09/17 04:35:00;;;;;;;8.33;6.63;;;12.40;99.90;;;;;;5008609;28;20479;-51
2023/09/17 04:37:28;;;;;;;6.90;6.03;;;12.30;99.90;;;;;;4996082;28;20492;-53
2023/09/17 04:39:55;;;;;;;7.77;7.00;;;12.30;99.90;;;;;;5001629;28;20563;-52
2023/09/17 04:42:21;;;;;;;9.00;6.90;;;12.30;99.90;;;;;;4998655;28;20837;-52
2023/09/17 04:44:48;;;;;;;7.40;6.70;;;12.20;99.90;;;;;;4998030;28;20510;-51
2023/09/17 04:47:14;;;;;;;9.23;7.10;;;12.20;99.90;;;;;;4996772;28;20975;-51
2023/09/17 04:49:41;;;;;;;13.03;6.40;;;12.20;99.90;;;;;;4999193;28;20510;-51
2023/09/17 04:52:08;;;;;;;8.13;6.50;;;12.10;99.90;;;;;;4995425;28;20918;-51
2023/09/17 04:54:35;;;;;;;10.43;7.17;;;12.20;99.90;;;;;;4987866;28;20495;-51
2023/09/17 04:57:03;;;;;;;8.90;7.20;;;12.10;99.90;;;;;;4990671;28;21048;-52
2023/09/17 04:59:30;;;;;;;7.20;6.50;;;12.10;99.90;;;;;;4994988;28;20489;-51
2023/09/17 05:01:56;;;;;;;7.27;6.57;;;12.20;99.90;;;;;;4989414;28;20496;-51
2023/09/17 05:04:24;;;;;;;7.30;6.60;;;12.20;99.90;;;;;;4997503;28;20880;-52
2023/09/17 05:06:50;;;;;;;12.33;6.17;;;12.20;99.90;;;;;;4998632;28;20981;-51
2023/09/17 05:09:17;;;;;;;7.97;6.40;;;12.30;99.90;;;;;;4993732;28;20476;-52
2023/09/17 05:11:45;;;;;;;10.10;7.30;;;12.20;99.90;;;;;;4994255;28;20539;-52
2023/09/17 05:14:11;;;;;;;7.83;7.07;;;12.20;99.90;;;;;;4995779;28;20550;-52
2023/09/17 05:16:39;;;;;;;7.17;6.57;;;12.20;99.90;;;;;;5003925;28;21201;-50
2023/09/17 05:19:05;;;;;;;9.70;7.20;;;12.20;99.90;;;;;;5012313;28;21020;-52
2023/09/17 05:21:32;;;;;;;6.75;6.15;;;12.20;99.90;;;;;;4997051;28;20467;-50
2023/09/17 05:23:58;;;;;;;7.90;6.87;;;12.20;99.90;;;;;;4999225;28;20271;-52
2023/09/17 05:26:25;;;;;;;6.80;6.20;;;12.30;99.90;;;;;;5005503;28;20470;-52
2023/09/17 05:28:53;;;;;;;6.83;6.30;;;12.40;99.90;;;;;;5002767;28;20472;-51
2023/09/17 05:31:20;;;;;;;7.67;6.87;;;12.40;99.90;;;;;;4988837;28;20464;-53
2023/09/17 05:33:46;;;;;;;9.80;7.17;;;12.50;99.90;;;;;;4984276;28;20863;-52
2023/09/17 05:36:13;;;;;;;7.00;6.30;;;12.50;99.90;;;;;;4989873;28;20457;-50
2023/09/17 05:38:39;;;;;;;7.43;6.60;;;12.60;99.90;;;;;;4988758;28;20507;-52
2023/09/17 05:41:07;;;;;;;9.10;6.93;;;12.60;99.90;;;;;;5000120;28;20503;-51
2023/09/17 05:43:34;;;;;;;7.80;7.00;;;12.70;99.90;;;;;;4995266;28;20459;-52
2023/09/17 05:46:02;;;;;;;7.33;6.73;;;12.80;99.90;;;;;;5002345;28;20465;-52
2023/09/17 05:48:29;;;;;;;6.90;6.30;;;12.90;99.90;;;;;;5007313;28;20531;-52
2023/09/17 05:50:55;;;;;;;7.97;7.13;;;12.90;99.90;;;;;;5002874;28;20456;-51
2023/09/17 05:53:22;;;;;;;10.27;7.40;;;13.00;99.90;;;;;;4994784;28;20469;-52
2023/09/17 05:55:49;;;;;;;11.03;7.10;;;13.10;99.90;;;;;;5005231;28;20470;-53
2023/09/17 05:58:16;;;;;;;8.03;7.17;;;13.20;99.90;;;;;;4998212;28;20891;-51
2023/09/17 06:00:42;;;;;;;8.00;7.30;;;13.30;99.90;;;;;;5009597;28;20471;-52
2023/09/17 06:03:10;;;;;;;7.53;6.73;;;13.30;99.90;;;;;;4997454;28;20467;-52
2023/09/17 06:05:37;;;;;;;7.73;6.93;;;13.40;99.90;;;;;;5000607;28;20507;-52
2023/09/17 06:08:04;;;;;;;8.60;7.17;;;13.50;99.90;;;;;;5009925;28;20515;-51
2023/09/17 06:10:30;;;;;;;7.67;6.87;;;13.50;99.90;;;;;;4997530;28;20491;-51
2023/09/17 06:12:58;;;;;;;8.27;6.77;;;13.60;99.90;;;;;;4989281;28;20498;-51
2023/09/17 06:15:25;;;;;;;13.73;7.40;;;13.60;99.90;;;;;;4991903;28;20460;-52
2023/09/17 06:17:51;;;;;;;8.37;6.80;;;13.70;99.90;;;;;;4987340;28;20523;-51
2023/09/17 06:20:19;;;;;;;8.20;7.50;;;13.80;99.90;;;;;;4991638;28;20496;-51
2023/09/17 06:22:48;;;;;;;7.70;6.00;;;13.90;99.90;;;;;;4994388;28;20923;-51
2023/09/17 06:25:15;;;;;;;7.87;7.03;;;13.90;99.90;;;;;;4991416;28;20471;-51
2023/09/17 06:27:42;;;;;;;7.03;6.30;;;14.00;99.90;;;;;;4993296;28;20487;-51
2023/09/17 06:30:10;;;;;;;7.43;6.70;;;14.10;99.90;;;;;;4986018;28;20990;-51
2023/09/17 06:32:36;;;;;;;8.80;6.87;;;14.20;99.90;;;;;;4990673;28;20489;-51
2023/09/17 06:35:03;;;;;;;8.10;7.30;;;14.30;99.90;;;;;;4991997;28;20547;-53
2023/09/17 06:37:31;;;;;;;8.53;7.70;;;14.40;99.90;;;;;;5002884;28;20491;-53
2023/09/17 06:39:58;;;;;;;8.17;7.37;;;14.50;99.90;;;;;;4994433;28;20570;-51
2023/09/17 06:42:25;;;;;;;10.23;6.97;;;14.60;99.90;;;;;;4994209;28;20508;-52
2023/09/17 06:44:51;;;;;;;8.97;8.10;;;14.80;99.90;;;;;;4993528;28;20527;-52
2023/09/17 06:47:18;;;;;;;8.10;7.50;;;14.90;99.90;;;;;;4991466;28;20522;-52
2023/09/17 06:49:44;;;;;;;7.80;7.10;;;15.00;99.90;;;;;;4986498;28;20572;-52
2023/09/17 06:52:11;;;;;;;9.23;7.60;;;15.20;99.90;;;;;;4989814;28;20547;-53
2023/09/17 06:54:39;;;;;;;7.93;7.23;;;15.30;99.90;;;;;;4990874;28;20489;-52
2023/09/17 06:57:06;;;;;;;13.30;9.20;;;15.50;99.90;;;;;;4993604;28;20454;-52
2023/09/17 06:59:32;;;;;;;15.03;8.33;;;15.70;99.90;;;;;;4989493;28;20527;-52
2023/09/17 07:01:59;;;;;;;17.33;9.70;;;15.80;99.90;;;;;;4993764;28;20824;-53
2023/09/17 07:04:25;;;;;;;11.70;9.83;;;16.10;99.90;;;;;;4991770;28;20546;-52
2023/09/17 07:06:52;;;;;;;10.90;9.50;;;16.30;99.90;;;;;;4994879;28;20495;-52
2023/09/17 07:09:19;;;;;;;18.40;11.30;;;16.50;99.90;;;;;;4994883;28;20519;-53
2023/09/17 07:11:47;;;;;;;19.30;11.10;;;16.70;99.90;;;;;;5000387;28;20571;-53
2023/09/17 07:14:13;;;;;;;11.50;10.40;;;16.90;99.90;;;;;;4992187;28;20465;-52
2023/09/17 07:16:40;;;;;;;12.73;10.33;;;17.00;99.90;;;;;;4993921;28;20488;-53
2023/09/17 07:19:06;;;;;;;12.57;10.60;;;17.20;99.90;;;;;;5006060;28;21075;-51
2023/09/17 07:21:33;;;;;;;13.30;9.93;;;17.30;99.90;;;;;;4998516;28;20484;-52
2023/09/17 07:23:59;;;;;;;11.40;9.23;;;17.50;99.90;;;;;;4993408;28;20873;-52
2023/09/17 07:26:26;;;;;;;18.40;11.03;;;17.60;99.90;;;;;;4999089;28;20486;-53
2023/09/17 07:28:54;;;;;;;12.90;10.60;;;17.70;99.90;;;;;;4996910;28;20570;-52
2023/09/17 07:31:20;;;;;;;14.97;10.60;;;17.80;99.90;;;;;;5003204;28;20452;-53
2023/09/17 07:33:47;;;;;;;13.07;10.20;;;17.90;99.90;;;;;;4999006;28;20595;-53
2023/09/17 07:36:14;;;;;;;17.40;11.57;;;18.00;99.90;;;;;;4999092;28;20477;-53
2023/09/17 07:38:40;;;;;;;14.00;10.63;;;18.10;99.90;;;;;;5005824;28;20503;-52
2023/09/17 07:41:07;;;;;;;11.67;10.47;;;18.10;99.90;;;;;;4994222;28;21071;-52
2023/09/17 07:43:34;;;;;;;13.57;10.70;;;18.20;89.10;;;;;;4992362;28;20511;-53
2023/09/17 07:46:03;;;;;;;10.13;9.00;;;18.40;87.20;;;;;;4994740;28;20483;-53
2023/09/17 07:48:30;;;;;;;15.47;9.80;;;18.50;77.20;;;;;;4991264;28;21077;-53
2023/09/17 07:50:57;;;;;;;13.67;9.70;;;18.60;22.60;;;;;;4996500;28;20468;-52
2023/09/17 07:53:24;;;;;;;14.10;8.87;;;18.70;33.50;;;;;;4992310;28;20973;-52
2023/09/17 07:55:51;;;;;;;14.30;10.37;;;18.80;39.30;;;;;;4996643;28;20464;-52
2023/09/17 07:58:17;;;;;;;12.80;10.67;;;19.00;44.90;;;;;;4993386;28;20491;-52
2023/09/17 08:00:45;;;;;;;14.83;10.23;;;19.10;51.40;;;;;;4996210;28;20464;-52
2023/09/17 08:03:13;;;;;;;12.30;9.90;;;19.20;51.50;;;;;;4993160;28;20482;-52
2023/09/17 08:05:41;;;;;;;11.23;9.70;;;19.30;53.60;;;;;;4999075;28;20455;-52
2023/09/17 08:08:07;;;;;;;14.20;9.80;;;19.40;51.70;;;;;;4993277;28;20515;-53
2023/09/17 08:10:34;;;;;;;9.83;8.93;;;19.40;52.10;;;;;;5002402;28;20502;-52
2023/09/17 08:13:00;;;;;;;18.80;10.43;;;19.40;61.00;;;;;;4991746;28;20461;-52
2023/09/17 08:15:27;;;;;;;10.60;9.50;;;19.50;61.50;;;;;;5000979;28;20476;-52
2023/09/17 08:17:54;;;;;;;11.50;9.13;;;19.60;60.40;;;;;;4991129;28;20488;-52
2023/09/17 08:20:22;;;;;;;10.40;8.90;;;19.70;63.70;;;;;;4995449;28;20488;-52
2023/09/17 08:22:50;;;;;;;9.93;8.67;;;19.90;66.80;;;;;;4992869;28;20460;-51
2023/09/17 08:25:17;;;;;;;10.23;9.20;;;20.00;72.80;;;;;;4986636;28;20546;-52
2023/09/17 08:27:44;;;;;;;13.17;9.13;;;20.00;75.30;;;;;;4990326;28;20566;-52
2023/09/17 08:30:12;;;;;;;17.93;9.13;;;20.20;77.10;;;;;;4998842;28;20548;-52
2023/09/17 08:32:39;;;;;;;9.03;8.13;;;20.20;78.00;;;;;;4994665;28;20473;-52
2023/09/17 08:35:07;;;;;;;19.40;9.23;;;20.30;92.50;;;;;;4996565;28;20559;-52
2023/09/17 08:37:36;;;;;;;14.83;9.20;;;20.60;99.90;;;;;;4993371;28;20448;-51
2023/09/17 08:40:05;;;;;;;13.23;8.17;;;20.70;99.90;;;;;;4995910;28;20575;-52
2023/09/17 08:42:33;;;;;;;11.60;8.23;;;20.90;99.90;;;;;;5002629;28;20554;-52
2023/09/17 08:45:00;;;;;;;9.80;8.80;;;21.00;99.90;;;;;;4993526;28;20455;-52
2023/09/17 08:47:27;;;;;;;14.40;7.90;;;21.20;99.90;;;;;;4996452;28;20463;-54
2023/09/17 08:49:54;;;;;;;12.07;9.80;;;21.30;99.90;;;;;;4994700;28;20465;-52
2023/09/17 08:52:23;;;;;;;12.53;7.73;;;21.40;99.90;;;;;;5002223;28;20451;-52
2023/09/17 08:54:51;;;;;;;13.97;8.47;;;21.40;99.90;;;;;;5001716;28;20985;-52
2023/09/17 08:57:22;;;;;;;9.67;8.67;;;21.60;99.90;;;;;;4995143;28;20448;-53
2023/09/17 08:59:53;;;;;;;9.87;8.43;;;21.70;99.90;;;;;;4995097;28;20512;-52
2023/09/17 09:02:25;;;;;;;9.20;7.67;;;21.90;99.90;;;;;;4994742;28;20471;-52
2023/09/17 09:04:53;;;;;;;11.00;8.60;;;21.90;99.90;;;;;;4993815;28;20459;-52
2023/09/17 09:07:22;;;;;;;11.10;8.17;;;22.10;99.90;;;;;;4995114;28;20514;-52
2023/09/17 09:09:51;;;;;;;15.40;8.30;;;22.10;99.90;;;;;;4996659;28;20456;-52
2023/09/17 09:12:19;;;;;;;10.23;7.47;;;22.20;99.90;;;;;;4991593;28;21324;-53
2023/09/17 09:14:45;;;;;;;9.03;8.13;;;22.30;99.90;;;;;;5002386;28;21043;-52
2023/09/17 09:17:13;;;;;;;8.97;7.73;;;22.30;99.90;;;;;;4993700;28;20528;-52
2023/09/17 09:19:40;;;;;;;8.50;7.57;;;22.50;99.90;;;;;;4997889;28;20495;-52
2023/09/17 09:22:06;;;;;;;9.00;7.30;;;22.50;99.90;;;;;;4995218;28;20939;-53
2023/09/17 09:24:41;;;;;;;9.10;7.10;;;22.60;99.90;;;;;;4994780;28;20484;-52
2023/09/17 09:27:09;;;;;;;7.73;6.93;;;22.80;99.90;;;;;;4993257;28;20486;-52
2023/09/17 09:29:36;;;;;;;9.50;7.20;;;22.80;99.90;;;;;;4993711;28;20508;-52
2023/09/17 09:32:04;;;;;;;7.87;7.13;;;23.00;99.90;;;;;;5002185;28;20966;-52
2023/09/17 09:34:30;;;;;;;10.93;7.27;;;23.10;99.90;;;;;;4993629;28;20468;-52
2023/09/17 09:36:57;;;;;;;7.17;6.43;;;23.20;99.90;;;;;;4997162;28;20492;-52
2023/09/17 09:39:24;;;;;;;7.50;6.80;;;23.20;99.90;;;;;;4995616;28;20519;-52
2023/09/17 09:41:50;;;;;;;7.27;6.50;;;23.40;99.90;;;;;;5001682;28;20465;-53
2023/09/17 09:44:18;;;;;;;7.40;6.70;;;23.50;90.90;;;;;;5005046;28;20495;-53
2023/09/17 09:46:45;;;;;;;11.07;6.90;;;23.70;95.40;;;;;;4991877;28;20477;-52
2023/09/17 09:49:11;;;;;;;9.10;6.73;;;23.70;49.00;;;;;;4997027;28;20457;-53
2023/09/17 09:51:38;;;;;;;16.30;6.73;;;23.70;45.10;;;;;;4994418;28;20440;-52
2023/09/17 09:54:05;;;;;;;6.30;5.80;;;23.60;51.10;;;;;;4996813;28;20487;-52
2023/09/17 09:56:32;;;;;;;8.73;6.67;;;23.80;41.80;;;;;;4992974;28;20484;-51
2023/09/17 09:59:00;;;;;;;6.20;5.70;;;24.00;41.50;;;;;;4993659;28;20567;-52
2023/09/17 10:01:29;;;;;;;9.93;6.80;;;24.10;60.70;;;;;;4994391;28;20445;-52
2023/09/17 10:03:58;;;;;;;8.27;6.20;;;24.20;64.10;;;;;;4986370;28;21007;-52
2023/09/17 10:06:25;;;;;;;8.03;5.97;;;24.40;83.60;;;;;;4986041;28;20800;-52
2023/09/17 10:08:53;;;;;;;11.50;6.20;;;24.50;91.70;;;;;;4988956;28;20488;-53
2023/09/17 10:11:20;;;;;;;7.07;6.37;;;24.60;87.60;;;;;;4987096;28;20464;-52
2023/09/17 10:13:46;;;;;;;7.97;6.27;;;25.10;99.90;;;;;;4996583;28;20473;-52
2023/09/17 10:16:14;;;;;;;12.27;5.83;;;25.60;99.90;;;;;;4994748;28;20535;-52
2023/09/17 10:18:44;;;;;;;6.90;6.30;;;26.30;99.90;;;;;;4997179;28;20518;-52
2023/09/17 10:21:13;;;;;;;6.27;5.60;;;26.90;99.90;;;;;;4993649;28;20496;-52
2023/09/17 10:23:40;;;;;;;6.27;5.73;;;27.10;99.90;;;;;;4993255;28;20496;-52
2023/09/17 10:26:10;;;;;;;6.90;5.30;;;27.10;99.90;;;;;;4993118;28;20507;-52
2023/09/17 10:28:38;;;;;;;6.17;5.70;;;26.90;99.90;;;;;;4992068;28;20488;-53
2023/09/17 10:31:05;;;;;;;7.77;5.57;;;26.60;99.90;;;;;;4990139;28;20560;-52
2023/09/17 10:33:33;;;;;;;5.77;5.27;;;26.70;99.90;;;;;;4990934;28;20494;-52
2023/09/17 10:36:05;;;;;;;6.53;5.07;;;27.00;99.90;;;;;;4996573;28;20456;-52
2023/09/17 10:38:35;;;;;;;5.93;5.43;;;26.50;99.90;;;;;;4993538;28;20978;-51
2023/09/17 10:41:03;;;;;;;9.10;5.40;;;26.40;99.90;;;;;;4997032;28;20492;-51
2023/09/17 10:43:30;;;;;;;6.83;5.50;;;26.30;99.90;;;;;;4998428;28;20479;-51
2023/09/17 10:45:58;;;;;;;7.23;4.97;;;26.20;99.90;;;;;;4999779;28;20487;-51
2023/09/17 10:48:27;;;;;;;8.83;5.10;;;26.20;99.90;;;;;;5002764;28;20519;-51
2023/09/17 10:50:55;;;;;;;6.27;5.43;;;26.30;99.90;;;;;;5008740;28;20495;-51
2023/09/17 10:53:23;;;;;;;7.73;5.20;;;26.80;99.90;;;;;;4989136;28;20853;-52
2023/09/17 10:55:57;;;;;;;5.27;4.87;;;27.00;99.90;;;;;;5012182;28;20491;-52
2023/09/17 10:58:28;;;;;;;5.00;4.57;;;26.70;99.90;;;;;;5000534;28;20519;-52
2023/09/17 11:00:58;;;;;;;5.43;4.93;;;26.30;99.90;;;;;;4988644;28;20538;-51
2023/09/17 11:03:28;;;;;;;5.00;4.43;;;26.20;99.90;;;;;;4990408;28;20547;-52
2023/09/17 11:05:57;;;;;;;10.30;4.20;;;26.30;99.90;;;;;;4987303;28;20958;-51
2023/09/17 11:08:26;;;;;;;7.30;4.00;;;26.30;99.90;;;;;;4991650;28;20477;-55
2023/09/17 11:10:52;;;;;;;9.47;4.10;;;26.20;99.90;;;;;;4996642;28;20552;-53
2023/09/17 11:13:20;;;;;;;10.13;4.30;;;26.00;99.90;;;;;;5007146;28;20498;-52
2023/09/17 11:15:48;;;;;;;4.73;4.33;;;25.90;99.90;;;;;;5008404;28;20535;-52
2023/09/17 11:18:15;;;;;;;5.30;4.50;;;25.80;99.90;;;;;;4987448;28;20502;-51
2023/09/17 11:20:59;;;;;;;5.47;5.03;;;25.70;99.90;;;;;;4990306;28;20579;-52
2023/09/17 11:23:46;;;;;;;6.63;4.10;;;25.60;99.90;;;;;;4987950;28;20527;-52
2023/09/17 11:26:20;;;;;;;7.80;4.60;;;25.70;99.90;;;;;;4995484;28;20460;-52
2023/09/17 11:28:54;;;;;;;5.63;4.40;;;25.70;99.90;;;;;;4989440;28;20520;-52
2023/09/17 11:31:21;;;;;;;4.73;4.17;;;25.70;99.90;;;;;;4992902;28;20539;-53
2023/09/17 11:33:48;;;;;;;5.93;4.13;;;25.60;99.90;;;;;;4989896;28;21130;-52
2023/09/17 11:36:15;;;;;;;4.30;3.90;;;25.70;99.90;;;;;;4989066;28;20460;-52
2023/09/17 11:38:47;;;;;;;6.23;4.07;;;25.80;99.90;;;;;;4992116;28;20491;-52
2023/09/17 11:41:16;;;;;;;5.20;4.60;;;25.80;99.90;;;;;;4992528;28;20516;-51
2023/09/17 11:43:45;;;;;;;5.57;4.23;;;25.80;1.40;;;;;;4989763;28;20515;-52
2023/09/17 11:46:13;;;;;;;4.87;4.47;;;25.80;99.90;;;;;;4991900;28;20552;-51
2023/09/17 11:48:42;;;;;;;6.43;4.87;;;25.80;99.90;;;;;;4990262;28;20519;-51
2023/09/17 11:51:24;;;;;;;6.73;4.57;;;25.80;99.90;;;;;;4989984;28;20453;-52
2023/09/17 11:53:55;;;;;;;4.77;4.37;;;25.80;99.90;;;;;;4991187;28;20554;-51
2023/09/17 11:56:22;;;;;;;4.57;4.17;;;25.90;99.90;;;;;;4992402;28;20472;-52
2023/09/17 11:59:01;;;;;;;4.30;3.80;;;26.10;99.90;;;;;;4991553;28;20472;-53
2023/09/17 12:01:29;;;;;;;4.47;4.07;;;26.10;99.90;;;;;;4987781;28;20488;-53
2023/09/17 12:03:57;;;;;;;4.60;4.20;;;26.10;99.90;;;;;;4985024;28;20470;-52
2023/09/17 12:06:25;;;;;;;4.20;3.90;;;26.10;99.90;;;;;;4989547;28;20460;-52
2023/09/17 12:08:53;;;;;;;5.13;3.60;;;26.10;99.90;;;;;;4987858;28;20484;-52
2023/09/17 12:11:22;;;;;;;4.67;3.47;;;25.90;99.90;;;;;;4991257;28;20488;-52
2023/09/17 12:13:53;;;;;;;3.50;3.20;;;26.40;99.90;;;;;;4991583;28;20526;-52
2023/09/17 12:16:23;;;;;;;6.00;4.17;;;26.60;99.90;;;;;;4989618;28;20844;-53
2023/09/17 12:18:51;;;;;;;5.43;4.37;;;26.60;99.90;;;;;;4990722;28;20496;-52
2023/09/17 12:21:17;;;;;;;5.50;3.60;;;26.70;99.90;;;;;;4992198;28;20567;-51
2023/09/17 12:23:54;;;;;;;3.90;3.60;;;26.90;99.90;;;;;;4992700;28;20499;-51
2023/09/17 12:26:31;;;;;;;7.50;3.90;;;26.70;99.90;;;;;;4988160;28;20654;-52
2023/09/17 12:28:57;;;;;;;8.00;3.60;;;27.30;99.90;;;;;;4992184;28;20474;-53
2023/09/17 12:31:24;;;;;;;14.13;2.93;;;27.90;99.90;;;;;;4989566;28;20452;-51
2023/09/17 12:33:52;;;;;;;4.07;3.70;;;27.90;99.90;;;;;;4990501;28;20472;-51
2023/09/17 12:36:19;;;;;;;3.27;3.07;;;28.30;99.90;;;;;;4993857;28;20460;-52
2023/09/17 12:38:46;;;;;;;3.83;3.53;;;28.20;99.90;;;;;;4989362;28;20507;-52
2023/09/17 12:41:12;;;;;;;5.80;4.30;;;28.60;99.90;;;;;;4989251;28;20511;-52
2023/09/17 12:43:40;;;;;;;4.00;3.70;;;29.50;99.90;;;;;;4995318;28;20861;-52
2023/09/17 12:46:07;;;;;;;4.07;3.57;;;30.10;99.90;;;;;;4991079;28;20551;-52